Time;durP1;ratioP1;P1;durP2;ratioP2;P2;SDS_P1;SDS_P2;PMS_P1;PMS_P2;Temp;Humidity;BMP_temperature;BMP_pressure;BME280_temperature;BME280_humidity;BME280_pressure;Samples;Min_cycle;Max_cycle;Signal;HPM_P1;HPM_P2
2023/12/28 00:00:30;;;;;;;25.73;2.55;;;4.50;99.90;;;2.88;100.00;100454.03;4888284;28;20470;-81
2023/12/28 00:02:56;;;;;;;23.23;3.70;;;4.50;99.90;;;2.93;100.00;100448.75;4879170;28;20051;-83
2023/12/28 00:05:27;;;;;;;11.32;3.00;;;4.50;99.90;;;2.97;100.00;100445.19;4911628;28;20022;-83
2023/12/28 00:07:57;;;;;;;16.10;4.03;;;4.50;99.90;;;2.94;100.00;100451.31;4854445;28;20062;-83
2023/12/28 00:10:25;;;;;;;13.85;3.40;;;4.50;99.90;;;2.97;100.00;100448.66;4874441;28;20092;-83
2023/12/28 00:13:00;;;;;;;17.52;4.38;;;4.60;99.90;;;3.06;100.00;100453.66;4903149;28;20524;-81
2023/12/28 00:15:26;;;;;;;15.20;4.00;;;4.60;99.90;;;3.19;100.00;100471.63;4887338;28;20089;-82
2023/12/28 00:17:59;;;;;;;15.77;4.00;;;4.70;99.90;;;3.25;100.00;100453.28;4914286;28;21093;-82
2023/12/28 00:20:25;;;;;;;25.55;4.63;;;4.70;99.90;;;3.30;100.00;100467.06;4870679;28;20467;-83
2023/12/28 00:22:50;;;;;;;22.35;4.90;;;4.70;99.90;;;3.33;100.00;100459.19;4903978;28;20102;-81
2023/12/28 00:25:16;;;;;;;20.75;3.92;;;4.80;99.90;;;3.36;100.00;100464.31;4909153;28;20048;-82
2023/12/28 00:27:42;;;;;;;18.40;4.07;;;4.80;99.90;;;3.36;100.00;100447.88;4887628;28;20074;-82
2023/12/28 00:30:09;;;;;;;17.50;4.28;;;4.80;99.90;;;3.36;100.00;100446.09;4891210;28;20038;-82
2023/12/28 00:32:43;;;;;;;21.73;4.00;;;4.80;99.90;;;3.35;100.00;100457.44;4861650;28;20049;-83
2023/12/28 00:35:10;;;;;;;17.15;3.78;;;;;;;3.36;100.00;100451.31;4873754;28;20044;-82
2023/12/28 00:37:35;;;;;;;15.63;3.50;;;4.90;99.90;;;3.37;100.00;100444.34;4901134;28;20038;-83
2023/12/28 00:40:02;;;;;;;16.05;3.90;;;4.80;99.90;;;3.38;100.00;100456.50;4877826;28;20047;-81
2023/12/28 00:42:36;;;;;;;16.60;4.40;;;4.90;99.90;;;3.45;100.00;100463.28;4866707;28;20058;-83
2023/12/28 00:45:02;;;;;;;16.75;3.78;;;4.80;99.90;;;3.39;100.00;100443.47;4869894;28;20040;-82
2023/12/28 00:47:28;;;;;;;16.02;4.18;;;4.80;99.90;;;3.39;100.00;100442.59;4881255;28;20073;-81
2023/12/28 00:50:03;;;;;;;18.90;4.18;;;4.80;99.90;;;3.36;100.00;100427.03;4860880;28;20035;-81
2023/12/28 00:52:29;;;;;;;17.67;3.75;;;4.80;99.90;;;3.24;100.00;100409.94;4888865;28;20169;-82
2023/12/28 00:54:57;;;;;;;23.67;4.22;;;4.70;99.90;;;3.21;100.00;100407.41;4880648;23;20089;-83
2023/12/28 00:57:34;;;;;;;18.38;3.90;;;4.70;99.90;;;3.17;100.00;100400.56;4875298;28;20081;-83
2023/12/28 01:00:01;;;;;;;21.90;4.10;;;4.70;99.90;;;3.17;100.00;100398.81;4925127;28;20050;-82
2023/12/28 01:02:36;;;;;;;17.17;4.63;;;4.70;99.90;;;3.19;100.00;100394.41;4894605;28;20319;-83
2023/12/28 01:05:04;;;;;;;18.77;4.32;;;4.70;99.90;;;3.21;100.00;100389.19;4940630;28;20053;-82
2023/12/28 01:07:30;;;;;;;9.38;2.53;;;4.70;99.90;;;3.19;100.00;100373.59;4891522;28;20038;-83
2023/12/28 01:10:08;;;;;;;13.25;4.05;;;4.70;99.90;;;3.19;100.00;100364.97;4895127;28;20046;-83
2023/12/28 01:12:41;;;;;;;18.48;4.15;;;4.70;99.90;;;3.19;100.00;100370.16;4903719;28;20031;-83
2023/12/28 01:15:08;;;;;;;16.40;4.18;;;4.70;99.90;;;3.22;100.00;100372.72;4890174;28;20051;-82
2023/12/28 01:17:43;;;;;;;15.00;4.88;;;4.70;99.90;;;3.27;100.00;100370.84;4887668;28;20050;-83
2023/12/28 01:20:10;;;;;;;25.75;4.57;;;4.80;99.90;;;3.36;100.00;100375.84;4876187;28;20039;-82
2023/12/28 01:22:35;;;;;;;17.05;3.90;;;4.80;99.90;;;3.36;100.00;100368.03;4906037;28;20099;-83
2023/12/28 01:25:01;;;;;;;15.45;4.00;;;4.80;99.90;;;3.36;100.00;100355.03;4884207;28;20054;-82
2023/12/28 01:27:27;;;;;;;17.65;4.20;;;4.80;99.90;;;3.37;100.00;100356.75;4890392;28;20058;-82
2023/12/28 01:29:53;;;;;;;21.02;5.00;;;4.90;99.90;;;3.39;100.00;100360.19;4893625;28;20692;-81
2023/12/28 01:32:28;;;;;;;16.73;4.15;;;4.90;99.90;;;3.43;100.00;100338.38;4865271;28;20085;-82
2023/12/28 01:34:54;;;;;;;18.52;4.30;;;4.90;99.90;;;3.45;100.00;100322.72;4888658;28;20042;-83
2023/12/28 01:37:19;;;;;;;20.48;4.50;;;4.90;99.90;;;3.43;100.00;100325.34;4889938;28;20046;-81
2023/12/28 01:39:45;;;;;;;17.98;4.68;;;5.20;99.90;;;3.47;100.00;100339.16;4846822;28;20049;-82
2023/12/28 01:42:20;;;;;;;17.30;4.97;;;5.00;99.90;;;3.53;100.00;100322.53;4838555;28;20084;-82
2023/12/28 01:44:48;;;;;;;23.42;5.93;;;5.00;99.90;;;3.58;100.00;100331.09;4881120;28;21429;-82
2023/12/28 01:47:20;;;;;;;30.23;5.43;;;5.00;99.90;;;3.62;100.00;100333.56;4884500;28;20097;-81
2023/12/28 01:49:47;;;;;;;17.40;4.93;;;5.10;99.90;;;3.68;100.00;100335.19;4879170;28;20063;-83
2023/12/28 01:52:13;;;;;;;25.55;5.95;;;5.10;99.90;;;3.76;100.00;100337.59;4916629;28;20069;-83
2023/12/28 01:54:39;;;;;;;21.60;5.38;;;5.20;99.90;;;3.78;100.00;100326.28;4892696;28;20039;-83
2023/12/28 01:57:16;;;;;;;21.88;5.50;;;5.20;99.90;;;3.83;100.00;100324.38;4882754;28;20063;-83
2023/12/28 01:59:45;;;;;;;23.30;5.40;;;5.30;99.90;;;3.86;100.00;100316.47;4901639;28;20039;-83
2023/12/28 02:02:18;;;;;;;21.05;5.45;;;5.30;99.90;;;3.93;100.00;100337.16;4876797;28;20058;-82
2023/12/28 02:04:45;;;;;;;19.27;5.28;;;5.40;99.90;;;3.97;100.00;100323.19;4893645;28;20248;-83
2023/12/28 02:07:13;;;;;;;19.25;5.07;;;5.40;99.90;;;4.01;100.00;100328.25;4900266;28;20069;-82
2023/12/28 02:09:46;;;;;;;17.88;4.50;;;5.50;99.90;;;4.07;100.00;100329.88;4911297;28;20042;-82
2023/12/28 02:12:12;;;;;;;9.75;3.50;;;5.50;99.90;;;4.08;100.00;100324.63;4889720;28;20031;-82
2023/12/28 02:14:37;;;;;;;14.25;3.80;;;5.50;99.90;;;4.15;100.00;100312.28;4901159;28;20067;-82
2023/12/28 02:17:28;;;;;;;16.35;3.95;;;5.60;99.90;;;4.26;100.00;100299.81;4853431;28;20074;-82
2023/12/28 02:19:57;;;;;;;9.10;3.47;;;5.70;99.90;;;4.37;100.00;100298.66;4863247;28;20052;-82
2023/12/28 02:22:40;;;;;;;9.75;3.40;;;5.70;99.90;;;4.43;100.00;100298.50;4850217;28;20397;-83
2023/12/28 02:25:13;;;;;;;8.63;2.85;;;5.80;99.90;;;4.45;100.00;100299.28;4891469;28;20114;-81
2023/12/28 02:27:42;;;;;;;9.75;3.00;;;5.80;99.90;;;4.47;100.00;100316.63;4903006;28;20043;-82
2023/12/28 02:30:21;;;;;;;15.27;3.70;;;5.90;99.90;;;4.53;100.00;100302.53;4885470;28;20038;-81
2023/12/28 02:33:36;;;;;;;5.90;2.75;;;6.00;99.90;;;4.57;100.00;100309.38;4908671;28;20066;-81
2023/12/28 02:36:27;;;;;;;13.32;3.10;;;6.00;99.90;;;4.60;100.00;100311.91;4894761;28;20043;-83
2023/12/28 02:38:58;;;;;;;16.90;3.45;;;6.00;99.90;;;4.61;100.00;100313.59;4812641;29;20048;-81
2023/12/28 02:41:31;;;;;;;10.63;3.28;;;6.10;99.90;;;4.62;100.00;100312.72;4795343;29;20143;-83
2023/12/28 02:43:57;;;;;;;17.00;3.60;;;6.10;99.90;;;4.66;100.00;100309.09;4791600;29;20045;-83
2023/12/28 02:46:23;;;;;;;8.05;3.50;;;6.10;99.90;;;4.65;100.00;100290.91;4840227;29;21526;-82
2023/12/28 02:48:50;;;;;;;10.52;3.55;;;6.10;99.90;;;4.68;100.00;100296.88;4829303;29;20041;-81
2023/12/28 02:51:25;;;;;;;6.60;2.25;;;;;;;4.66;100.00;100290.84;4809431;29;20041;-82
2023/12/28 02:53:51;;;;;;;11.60;3.50;;;6.10;99.90;;;4.67;100.00;100284.75;4837077;29;20044;-81
2023/12/28 02:56:16;;;;;;;10.13;2.97;;;6.10;99.90;;;4.66;100.00;100290.00;4830084;29;20048;-82
2023/12/28 02:58:48;;;;;;;9.23;3.05;;;6.10;99.90;;;4.69;100.00;100295.16;4829529;29;20048;-82
2023/12/28 03:01:13;;;;;;;11.10;3.67;;;6.20;99.90;;;4.75;100.00;100291.47;4834650;29;20037;-84
2023/12/28 03:03:39;;;;;;;9.98;3.45;;;6.20;99.90;;;4.82;100.00;100290.44;4785655;29;20044;-82
2023/12/28 03:06:05;;;;;;;8.52;3.47;;;6.20;99.90;;;4.85;100.00;100285.09;4819537;29;20491;-82
2023/12/28 03:08:33;;;;;;;9.30;3.42;;;6.30;99.90;;;4.91;100.00;100290.13;4841844;29;20059;-81
2023/12/28 03:11:08;;;;;;;15.82;3.90;;;6.30;99.90;;;4.93;100.00;100280.50;4830845;29;20148;-81
2023/12/28 03:13:34;;;;;;;11.23;3.15;;;6.30;99.90;;;4.95;100.00;100291.75;4831865;29;20524;-83
2023/12/28 03:16:00;;;;;;;7.53;2.80;;;;;;;4.97;100.00;100289.09;4870963;28;20035;-82
2023/12/28 03:18:26;;;;;;;7.00;3.40;;;6.40;99.90;;;4.98;100.00;100299.47;4926361;28;20082;-83
2023/12/28 03:20:57;;;;;;;7.40;3.05;;;;;;;5.00;100.00;100295.06;4928357;28;20030;-81
2023/12/28 03:23:23;;;;;;;7.40;2.90;;;6.40;99.90;;;5.02;100.00;100297.66;4916637;28;20087;-81
2023/12/28 03:25:48;;;;;;;10.57;3.42;;;6.40;99.90;;;5.02;100.00;100298.50;4912072;28;20534;-83
2023/12/28 03:28:15;;;;;;;9.18;2.70;;;6.40;99.90;;;5.04;100.00;100291.47;4902891;28;20074;-83
2023/12/28 03:30:40;;;;;;;6.15;2.25;;;6.50;99.90;;;5.04;100.00;100296.69;4916341;28;20108;-82
2023/12/28 03:33:14;;;;;;;12.45;2.95;;;6.50;99.90;;;5.13;100.00;100306.00;4905925;28;20489;-83
2023/12/28 03:35:40;;;;;;;4.75;2.65;;;6.60;99.90;;;5.17;100.00;100293.72;4908036;28;20576;-81
2023/12/28 03:38:06;;;;;;;8.32;3.35;;;6.60;99.90;;;5.22;100.00;100289.19;4917339;28;20046;-82
2023/12/28 03:40:31;;;;;;;6.78;2.83;;;6.70;99.90;;;5.22;100.00;100279.59;4913167;28;20035;-83
2023/12/28 03:42:57;;;;;;;8.25;2.70;;;6.70;99.90;;;5.29;100.00;100291.56;4891087;28;20502;-82
2023/12/28 03:45:32;;;;;;;7.53;2.83;;;6.70;99.90;;;5.31;100.00;100286.28;4910447;28;20087;-82
2023/12/28 03:47:58;;;;;;;5.10;2.72;;;6.80;99.90;;;5.37;100.00;100291.31;4875857;28;20035;-82
2023/12/28 03:50:24;;;;;;;7.30;2.80;;;6.80;99.90;;;5.42;100.00;100297.25;4910545;28;20036;-82
2023/12/28 03:52:49;;;;;;;8.57;3.03;;;6.90;99.90;;;5.47;100.00;100299.72;4879670;28;20050;-81
2023/12/28 03:55:25;;;;;;;9.45;2.83;;;;;;;5.50;100.00;100315.28;4903587;28;20035;-82
2023/12/28 03:57:51;;;;;;;10.95;2.83;;;6.90;99.90;;;5.53;100.00;100300.38;4879128;28;20518;-81
2023/12/28 04:00:17;;;;;;;4.43;2.58;;;7.00;99.90;;;5.59;100.00;100306.28;4903197;28;20039;-82
2023/12/28 04:02:48;;;;;;;10.70;2.70;;;7.00;99.90;;;5.61;100.00;100305.31;4886894;28;20125;-81
2023/12/28 04:05:14;;;;;;;8.57;2.83;;;7.00;99.90;;;5.67;100.00;100299.06;4888802;28;20059;-82
2023/12/28 04:07:40;;;;;;;7.07;2.88;;;7.00;99.90;;;5.64;100.00;100302.63;4889001;28;20038;-82
2023/12/28 04:10:06;;;;;;;10.93;2.80;;;7.00;99.90;;;5.65;100.00;100299.09;4871870;28;20036;-83
2023/12/28 04:12:58;;;;;;;5.40;2.75;;;7.10;99.90;;;5.67;100.00;100291.22;4881367;28;20047;-83
2023/12/28 04:15:26;;;;;;;8.00;2.60;;;7.10;99.90;;;5.68;100.00;100298.13;4900866;28;20852;-83
2023/12/28 04:17:52;;;;;;;5.45;2.20;;;7.10;99.90;;;5.70;100.00;100299.81;4931581;28;20121;-82
2023/12/28 04:20:18;;;;;;;7.22;2.63;;;7.20;99.90;;;5.76;100.00;100293.50;4913224;28;20031;-83
2023/12/28 04:22:52;;;;;;;8.90;2.90;;;7.20;99.90;;;5.81;100.00;100307.31;4871828;28;20055;-83
2023/12/28 04:25:18;;;;;;;7.50;2.60;;;7.20;99.90;;;5.86;100.00;100304.53;4888997;28;20830;-82
2023/12/28 04:27:53;;;;;;;8.57;2.33;;;7.20;99.90;;;5.88;100.00;100300.09;4882165;28;20054;-82
2023/12/28 04:30:19;;;;;;;9.30;2.80;;;7.30;99.90;;;5.93;100.00;100303.41;4897641;28;20048;-81
2023/12/28 04:32:45;;;;;;;6.40;2.47;;;;;;;5.97;100.00;100296.34;4906999;28;20708;-83
2023/12/28 04:35:11;;;;;;;4.63;1.90;;;7.30;99.90;;;5.94;100.00;100298.16;4904438;23;20050;-82
2023/12/28 04:37:37;;;;;;;5.15;2.50;;;7.40;99.90;;;6.01;100.00;100300.56;4874923;28;20027;-83
2023/12/28 04:40:11;;;;;;;4.45;2.22;;;7.40;99.90;;;6.08;100.00;100308.13;4876919;28;20047;-83
2023/12/28 04:42:36;;;;;;;10.00;3.03;;;7.50;99.90;;;6.12;100.00;100322.81;4869593;28;20540;-83
2023/12/28 04:45:03;;;;;;;4.75;2.20;;;7.50;99.90;;;6.20;100.00;100317.31;4866641;28;20048;-82
2023/12/28 04:47:29;;;;;;;6.15;2.95;;;7.60;99.90;;;6.23;100.00;100316.34;4885130;28;20079;-81
2023/12/28 04:50:04;;;;;;;4.53;2.28;;;7.60;99.90;;;6.24;100.00;100324.16;4870641;28;20039;-83
2023/12/28 04:52:30;;;;;;;9.60;2.50;;;7.70;99.90;;;6.29;100.00;100314.38;4862650;28;20523;-82
2023/12/28 04:54:56;;;;;;;5.88;2.30;;;7.70;99.90;;;6.33;100.00;100315.97;4868103;28;20047;-84
2023/12/28 04:57:29;;;;;;;6.68;2.35;;;7.70;99.90;;;6.42;100.00;100329.63;4843067;28;20124;-83
2023/12/28 04:59:57;;;;;;;6.50;2.60;;;7.80;99.90;;;6.44;100.00;100320.81;4800764;28;20075;-83
2023/12/28 05:02:25;;;;;;;4.78;2.38;;;7.80;99.90;;;6.48;100.00;100311.97;4839944;28;20043;-83
2023/12/28 05:05:01;;;;;;;7.72;2.10;;;7.80;99.90;;;6.54;100.00;100323.94;4868281;28;20040;-82
2023/12/28 05:07:29;;;;;;;7.97;2.00;;;7.90;99.90;;;6.58;100.00;100315.94;4856188;28;20071;-81
2023/12/28 05:10:00;;;;;;;5.38;1.95;;;7.90;99.90;;;6.58;100.00;100308.06;4872337;28;20052;-80
2023/12/28 05:12:28;;;;;;;6.43;2.33;;;7.90;99.90;;;6.62;100.00;100308.81;4847114;28;20031;-82
2023/12/28 05:14:54;;;;;;;4.40;2.10;;;8.00;99.90;;;6.63;100.00;100304.44;4884450;28;20103;-83
2023/12/28 05:17:20;;;;;;;5.00;2.00;;;8.00;99.90;;;6.62;100.00;100290.50;4880936;28;20031;-81
2023/12/28 05:19:53;;;;;;;4.88;2.72;;;8.00;99.90;;;6.67;100.00;100301.66;4874122;28;20039;-83
2023/12/28 05:22:19;;;;;;;4.72;2.00;;;8.00;99.90;;;6.72;100.00;100309.34;4791117;29;20307;-80
2023/12/28 05:24:47;;;;;;;4.72;1.90;;;8.00;99.90;;;6.64;100.00;100322.72;4893380;28;20047;-83
2023/12/28 05:27:13;;;;;;;10.55;2.70;;;8.00;99.90;;;6.60;100.00;100325.50;4872380;28;20046;-82
2023/12/28 05:29:44;;;;;;;4.78;2.20;;;8.00;99.90;;;6.63;100.00;100328.00;4861572;29;20043;-82
2023/12/28 05:32:10;;;;;;;6.18;1.92;;;8.00;99.90;;;6.60;100.00;100328.97;4846273;28;20126;-83
2023/12/28 05:34:36;;;;;;;6.53;1.90;;;8.00;99.90;;;6.58;100.00;100323.78;4843607;28;20145;-82
2023/12/28 05:37:02;;;;;;;5.82;2.22;;;8.00;99.90;;;6.56;100.00;100333.44;4880485;28;20406;-82
2023/12/28 05:39:28;;;;;;;5.25;1.60;;;7.90;99.90;;;6.50;100.00;100331.06;4856890;28;20039;-82
2023/12/28 05:41:54;;;;;;;3.15;1.80;;;7.90;99.90;;;6.50;100.00;100340.66;4855120;28;20031;-83
2023/12/28 05:44:27;;;;;;;8.00;1.98;;;7.90;99.90;;;6.44;100.00;100340.91;4855427;28;20034;-82
2023/12/28 05:46:57;;;;;;;7.63;1.92;;;7.80;99.90;;;6.44;100.00;100335.66;4855652;28;20084;-83
2023/12/28 05:49:36;;;;;;;11.45;2.78;;;7.80;99.90;;;6.42;100.00;100334.88;4817933;29;20111;-83
2023/12/28 05:52:22;;;;;;;;;;;;;;;;;;;;;
2023/12/28 05:54:48;;;;;;;8.60;1.85;;;7.80;99.90;;;6.33;100.00;100344.75;4841104;29;21308;-82
2023/12/28 05:57:21;;;;;;;7.00;1.83;;;;;;;6.35;100.00;100352.53;4834090;28;20044;-82
2023/12/28 05:59:56;;;;;;;8.82;2.15;;;7.80;99.90;;;6.42;100.00;100358.41;4823328;28;20031;-81
2023/12/28 06:02:22;;;;;;;5.85;2.22;;;7.70;99.90;;;6.38;100.00;100348.97;4862994;28;20488;-83
2023/12/28 06:04:48;;;;;;;4.68;2.17;;;7.80;99.90;;;6.35;100.00;100337.69;4861904;28;20078;-81
2023/12/28 06:07:25;;;;;;;4.68;1.95;;;7.80;99.90;;;6.36;100.00;100347.25;4846542;29;20082;-82
2023/12/28 06:09:51;;;;;;;3.47;1.73;;;7.80;99.90;;;6.38;100.00;100355.03;4870990;28;20061;-82
2023/12/28 06:12:17;;;;;;;6.82;2.13;;;7.70;99.90;;;6.35;100.00;100361.22;4868375;28;20041;-84
2023/12/28 06:14:49;;;;;;;8.38;2.00;;;8.00;99.90;;;6.32;100.00;100355.25;4872288;28;20058;-82
2023/12/28 06:17:18;;;;;;;3.17;1.63;;;7.70;99.90;;;6.28;100.00;100356.25;4858162;29;20095;-83
2023/12/28 06:19:53;;;;;;;10.48;2.15;;;7.70;99.90;;;6.26;100.00;100347.63;4881225;28;20032;-82
2023/12/28 06:22:19;;;;;;;4.03;1.75;;;7.60;99.90;;;6.26;100.00;100358.91;4881029;28;20036;-82
2023/12/28 06:24:47;;;;;;;9.55;2.22;;;7.60;99.90;;;6.25;100.00;100352.00;4855939;28;20044;-82
2023/12/28 06:27:26;;;;;;;6.85;1.90;;;;;;;6.25;100.00;100357.22;4857026;29;20510;-83
2023/12/28 06:29:51;;;;;;;8.07;2.38;;;7.60;99.90;;;6.22;100.00;100357.34;4843503;28;20494;-81
2023/12/28 06:32:17;;;;;;;6.10;1.95;;;7.60;99.90;;;6.19;100.00;100354.81;4856321;28;20041;-83
2023/12/28 06:34:50;;;;;;;4.90;2.10;;;7.60;99.90;;;6.19;100.00;100360.03;4843082;28;20982;-83
2023/12/28 06:37:17;;;;;;;5.70;1.90;;;7.60;99.90;;;6.19;100.00;100354.81;4857306;29;20039;-84
2023/12/28 06:39:43;;;;;;;7.53;2.35;;;7.60;99.90;;;6.18;100.00;100352.25;4854830;28;20070;-85
2023/12/28 06:42:08;;;;;;;8.52;2.08;;;7.60;99.90;;;6.15;100.00;100359.31;4848441;28;20038;-84
2023/12/28 06:44:40;;;;;;;7.38;2.00;;;7.50;99.90;;;6.15;100.00;100361.94;4851502;28;20063;-85
2023/12/28 06:47:06;;;;;;;3.13;2.05;;;;;;;6.13;100.00;100360.25;4844139;29;20035;-85
2023/12/28 06:49:35;;;;;;;7.18;1.95;;;7.50;99.90;;;6.10;100.00;100365.59;4846286;29;20659;-84
2023/12/28 06:52:31;;;;;;;8.88;2.20;;;7.50;99.90;;;6.11;100.00;100355.09;4833825;28;20039;-84
2023/12/28 06:54:57;;;;;;;7.65;2.28;;;7.50;99.90;;;6.08;100.00;100365.63;4901052;28;20102;-84
2023/12/28 06:57:29;;;;;;;5.30;2.40;;;7.50;99.90;;;6.08;100.00;100343.88;4848984;28;20125;-84
2023/12/28 06:59:55;;;;;;;4.43;2.20;;;7.50;99.90;;;6.06;100.00;100353.53;4836473;29;20506;-82
2023/12/28 07:02:21;;;;;;;4.22;1.95;;;7.50;99.90;;;6.03;100.00;100357.09;4881456;28;20091;-82
2023/12/28 07:04:47;;;;;;;8.95;2.10;;;7.40;99.90;;;6.04;100.00;100357.97;4854577;28;20039;-82
2023/12/28 07:07:13;;;;;;;6.28;2.10;;;7.50;99.90;;;6.05;100.00;100354.44;4879460;28;20454;-83
2023/12/28 07:09:44;;;;;;;5.38;2.00;;;7.50;99.90;;;6.10;100.00;100352.53;4902923;28;20087;-80
2023/12/28 07:12:10;;;;;;;8.25;2.05;;;7.50;99.90;;;6.06;100.00;100361.38;4876054;28;20162;-82
2023/12/28 07:14:38;;;;;;;5.03;2.03;;;7.50;99.90;;;6.07;100.00;100350.00;4886739;28;20036;-84
2023/12/28 07:17:11;;;;;;;5.03;2.20;;;7.50;99.90;;;6.09;100.00;100361.25;4889208;28;20051;-82
2023/12/28 07:19:37;;;;;;;4.38;1.90;;;7.50;99.90;;;6.07;100.00;100357.84;4862613;29;20051;-82
2023/12/28 07:22:03;;;;;;;5.28;2.30;;;7.50;99.90;;;6.11;100.00;100354.22;4885961;28;20102;-82
2023/12/28 07:24:29;;;;;;;5.53;2.35;;;7.50;99.90;;;6.09;100.00;100371.72;4856280;28;20558;-82
2023/12/28 07:26:57;;;;;;;6.05;2.22;;;7.50;99.90;;;6.09;100.00;100371.72;4865018;28;20537;-84
2023/12/28 07:29:30;;;;;;;8.45;2.35;;;7.50;99.90;;;6.11;100.00;100369.91;4863530;29;20036;-82
2023/12/28 07:31:56;;;;;;;7.95;2.13;;;7.50;99.90;;;6.08;100.00;100373.47;4854826;28;20123;-83
2023/12/28 07:34:22;;;;;;;8.15;1.88;;;7.50;99.90;;;6.09;100.00;100372.59;4893818;29;20036;-82
2023/12/28 07:36:48;;;;;;;7.38;2.20;;;7.50;99.90;;;6.12;100.00;100377.69;4857374;28;20111;-83
2023/12/28 07:39:14;;;;;;;8.02;1.95;;;7.50;99.90;;;6.12;100.00;100387.31;4883718;28;20040;-83
2023/12/28 07:41:49;;;;;;;20.67;2.47;;;7.60;99.90;;;6.19;100.00;100394.03;4867254;29;20044;-83
2023/12/28 07:44:16;;;;;;;5.70;2.10;;;7.60;99.90;;;6.17;100.00;100395.84;4875142;28;20677;-82
2023/12/28 07:46:42;;;;;;;10.40;2.50;;;7.60;99.90;;;6.21;100.00;100391.38;4874549;28;20047;-83
2023/12/28 07:49:17;;;;;;;3.80;1.77;;;7.60;99.90;;;6.23;100.00;100394.78;4882579;29;20042;-82
2023/12/28 07:51:43;;;;;;;7.17;2.40;;;7.60;99.90;;;6.25;100.00;100393.81;4842823;29;20055;-83
2023/12/28 07:54:09;;;;;;;5.40;1.88;;;7.60;99.90;;;6.23;100.00;100395.63;4864111;28;20066;-82
2023/12/28 07:56:44;;;;;;;5.68;1.90;;;7.70;99.90;;;6.27;100.00;100394.63;4852467;28;20425;-83
2023/12/28 07:59:09;;;;;;;6.60;2.50;;;7.70;99.90;;;6.32;100.00;100390.09;4862866;28;20066;-81
2023/12/28 08:01:38;;;;;;;8.18;1.85;;;7.70;99.90;;;6.36;100.00;100390.84;4902229;28;20125;-84
2023/12/28 08:04:15;;;;;;;4.90;1.70;;;7.80;99.90;;;6.38;100.00;100389.03;4880922;28;20086;-83
2023/12/28 08:06:40;;;;;;;5.85;2.42;;;7.80;99.90;;;6.37;100.00;100384.69;4880813;28;20039;-83
2023/12/28 08:09:18;;;;;;;5.18;2.20;;;7.80;99.90;;;6.42;100.00;100387.19;4864158;28;20045;-84
2023/12/28 08:11:46;;;;;;;4.38;1.63;;;7.80;99.90;;;6.45;100.00;100394.91;4845395;29;20074;-83
2023/12/28 08:14:20;;;;;;;6.78;2.33;;;7.90;99.90;;;6.53;100.00;100395.50;4869662;29;20729;-83
2023/12/28 08:16:47;;;;;;;4.38;1.52;;;;;;;6.52;100.00;100396.38;4861278;28;20050;-83
2023/12/28 08:19:20;;;;;;;5.65;2.20;;;8.00;99.90;;;6.58;100.00;100386.56;4906509;28;20055;-83
2023/12/28 08:21:46;;;;;;;4.65;2.10;;;8.00;99.90;;;6.64;100.00;100385.50;4847981;28;20096;-83
2023/12/28 08:24:12;;;;;;;9.05;2.42;;;8.00;99.90;;;6.62;100.00;100387.31;4870396;28;20473;-81
2023/12/28 08:26:37;;;;;;;10.02;2.15;;;8.00;99.90;;;6.66;100.00;100383.69;4873635;28;20043;-83
2023/12/28 08:29:03;;;;;;;6.38;2.20;;;8.10;99.90;;;6.67;100.00;100380.13;4888197;28;20046;-84
2023/12/28 08:31:29;;;;;;;6.07;1.70;;;8.10;99.90;;;6.74;100.00;100380.81;4868525;28;20102;-83
2023/12/28 08:34:06;;;;;;;4.65;1.77;;;8.10;99.90;;;6.77;100.00;100385.91;4862397;28;20042;-84
2023/12/28 08:36:32;;;;;;;5.57;2.15;;;8.20;99.90;;;6.80;100.00;100388.41;4865553;28;20039;-82
2023/12/28 08:38:58;;;;;;;5.30;1.95;;;8.20;99.90;;;6.85;100.00;100385.66;4838360;28;20047;-85
2023/12/28 08:41:38;;;;;;;5.05;2.00;;;8.20;99.90;;;6.87;100.00;100375.94;4889318;28;20044;-85
2023/12/28 08:44:12;;;;;;;3.80;1.90;;;8.30;99.90;;;6.89;100.00;100364.53;4859698;29;20473;-84
2023/12/28 08:46:38;;;;;;;7.30;1.85;;;;;;;6.89;100.00;100374.13;4876797;28;20054;-85
2023/12/28 08:49:04;;;;;;;6.30;1.80;;;8.30;99.90;;;6.95;100.00;100371.28;4883609;28;20046;-84
2023/12/28 08:51:39;;;;;;;7.75;1.73;;;8.30;99.90;;;6.93;100.00;100366.13;4869056;28;20087;-85
2023/12/28 08:54:05;;;;;;;7.38;2.28;;;8.40;99.90;;;6.95;100.00;100366.94;4869884;28;20046;-85
2023/12/28 08:56:31;;;;;;;3.50;1.73;;;8.40;99.90;;;6.96;100.00;100373.00;4881761;28;20477;-84
2023/12/28 09:02:18;;;;;;;8.18;2.08;;;8.40;99.90;;;7.01;100.00;100375.44;4821408;29;20047;-84
2023/12/28 09:04:47;;;;;;;7.85;1.88;;;;;;;7.03;100.00;100377.09;4850617;28;20052;-85
2023/12/28 09:07:23;;;;;;;;;;;;;;;;;;;;;
2023/12/28 09:09:50;;;;;;;11.18;2.13;;;8.50;99.90;;;7.09;100.00;100371.63;4851836;29;20028;-85
2023/12/28 09:12:25;;;;;;;5.70;1.92;;;8.50;99.90;;;7.10;100.00;100365.47;4870398;29;20051;-85
2023/12/28 09:14:53;;;;;;;8.60;1.67;;;8.60;99.90;;;7.18;100.00;100383.53;4844898;29;20784;-84
2023/12/28 09:17:31;;;;;;;7.80;1.70;;;8.50;99.90;;;7.22;100.00;100379.03;4835304;29;21120;-85
2023/12/28 09:20:40;;;;;;;;;;;;;;;;;;;;;
2023/12/28 09:26:23;;;;;;;8.32;1.52;;;;;;;7.48;100.00;100372.78;4677755;30;20546;-83
2023/12/28 09:28:49;;;;;;;8.77;1.88;;;8.90;99.90;;;7.57;100.00;100380.28;4715158;29;20052;-84
2023/12/28 09:31:24;;;;;;;4.38;2.13;;;8.90;99.90;;;7.62;100.00;100387.94;4735193;29;20039;-84
2023/12/28 09:33:51;;;;;;;13.02;1.90;;;9.00;99.90;;;7.65;100.00;100393.06;4720607;29;20040;-84
2023/12/28 09:36:24;;;;;;;4.38;1.42;;;9.00;99.90;;;7.67;100.00;100394.72;4692879;30;20044;-84
2023/12/28 09:38:51;;;;;;;9.02;1.48;;;;;;;7.74;100.00;100388.31;4740580;29;20035;-84
2023/12/28 09:41:28;;;;;;;7.20;1.73;;;9.10;99.90;;;7.81;100.00;100375.81;4729942;29;20060;-84
2023/12/28 09:44:18;;;;;;;6.30;1.40;;;9.20;99.90;;;7.87;100.00;100370.31;4689942;29;20040;-83
2023/12/28 09:46:53;;;;;;;6.75;1.70;;;9.20;99.90;;;7.95;100.00;100368.25;4709015;30;20423;-84
2023/12/28 09:49:21;;;;;;;5.53;1.48;;;9.30;99.90;;;7.97;99.03;100371.66;4706745;29;20047;-84
2023/12/28 09:52:13;;;;;;;6.88;1.38;;;9.30;99.90;;;8.04;99.02;100376.66;4718075;30;20128;-85
2023/12/28 09:58:02;;;;;;;5.43;1.52;;;;;;;8.13;98.24;100369.22;4682320;30;20152;-85
2023/12/28 10:00:33;;;;;;;6.85;1.60;;;9.50;99.90;;;8.17;97.64;100375.22;4737517;29;20046;-84
2023/12/28 10:03:08;;;;;;;2.80;1.08;;;;;;;8.22;96.59;100381.09;4775580;29;20051;-85
2023/12/28 10:05:49;;;;;;;6.20;2.28;;;9.60;99.90;;;8.36;96.19;100384.00;4800988;29;20034;-84
2023/12/28 10:08:28;;;;;;;;;;;;;;;;;;;;;
2023/12/28 10:11:07;;;;;;;4.18;1.52;;;9.80;99.90;;;8.51;94.30;100398.28;4802135;29;20042;-84
2023/12/28 10:13:43;;;;;;;9.32;1.42;;;9.80;99.90;;;8.58;93.65;100396.22;4806324;29;20110;-85
2023/12/28 10:16:13;;;;;;;9.15;2.33;;;9.90;99.90;;;8.53;93.04;100391.19;4814478;29;20053;-85
2023/12/28 10:18:49;;;;;;;5.80;1.10;;;;;;;8.61;92.56;100394.31;4804880;29;20097;-83
2023/12/28 10:21:18;;;;;;;6.85;1.60;;;9.90;99.90;;;8.69;92.25;100391.34;4805522;29;20493;-85
2023/12/28 10:23:44;;;;;;;8.27;1.50;;;10.00;99.90;;;8.73;91.22;100392.94;4830734;29;20049;-83
2023/12/28 10:26:19;;;;;;;3.63;1.15;;;10.10;99.90;;;8.83;90.90;100395.97;4822201;29;20112;-82
2023/12/28 10:28:45;;;;;;;6.57;1.80;;;10.10;99.90;;;8.92;90.48;100377.22;4826085;29;20045;-83
2023/12/28 10:31:12;;;;;;;4.07;1.48;;;10.30;99.90;;;8.99;90.21;100380.41;4826088;29;20507;-83
2023/12/28 10:33:50;;;;;;;3.90;1.35;;;10.30;99.90;;;8.97;89.48;100388.34;4841594;29;20559;-84
2023/12/28 10:36:17;;;;;;;7.80;1.33;;;10.30;99.90;;;8.96;88.96;100364.78;4892645;28;20047;-84
2023/12/28 10:38:52;;;;;;;8.15;1.50;;;10.30;99.90;;;9.03;88.48;100387.22;4897117;28;20607;-83
2023/12/28 10:41:19;;;;;;;4.95;1.25;;;10.40;99.90;;;9.05;88.19;100395.88;4893817;29;20064;-81
2023/12/28 10:44:23;;;;;;;7.05;1.58;;;10.40;99.90;;;9.09;87.31;100379.03;4878524;29;20203;-82
2023/12/28 10:46:53;;;;;;;4.68;1.48;;;10.40;99.90;;;9.11;87.29;100379.81;4895316;28;20035;-82
2023/12/28 10:49:27;;;;;;;5.50;1.45;;;10.50;99.90;;;9.06;87.56;100367.84;4865488;28;20115;-82